Terminal Aerodrome Forecast
Issued by NWS

Home | Current Version | Previous Version | Text Only | Print | Product List | Glossary On
Versions: 1 2 3 4 5 6 7 8 9 10 11 12 13 14 15 16
000
FTUS45 KLKN 181700
TAFEKO
TAF
KEKO 181720Z 1818/1918 24007KT P6SM VCSH SCT030 OVC050
     FM190200 VRB04KT P6SM SCT060
     FM191700 26013G23KT P6SM VCSH BKN050=

USA.gov is the U.S. government's official web portal to all federal, state and local government web resources and services.